Time;durP1;ratioP1;P1;durP2;ratioP2;P2;SDS_P1;SDS_P2;PMS_P1;PMS_P2;Temp;Humidity;BMP_temperature;BMP_pressure;BME280_temperature;BME280_humidity;BME280_pressure;Samples;Min_cycle;Max_cycle;Signal;HPM_P1;HPM_P2
2021/09/04 00:00:19;;;;;;;4.60;4.30;;;;;22.60;100769.00;;;;2062860;28;20219;-54
2021/09/04 00:01:19;;;;;;;4.67;4.30;;;;;22.60;100760.00;;;;2063126;28;20207;-53
2021/09/04 00:02:20;;;;;;;5.17;4.73;;;;;22.60;100765.00;;;;2062889;28;20219;-54
2021/09/04 00:03:20;;;;;;;4.80;4.40;;;;;22.60;100762.00;;;;2062151;28;20211;-53
2021/09/04 00:04:21;;;;;;;4.40;4.10;;;;;22.60;100759.00;;;;2062855;28;20206;-54
2021/09/04 00:05:21;;;;;;;4.60;4.23;;;;;22.60;100757.00;;;;2062119;28;20211;-54
2021/09/04 00:06:21;;;;;;;4.27;3.97;;;;;22.60;100766.00;;;;2062861;28;20214;-54
2021/09/04 00:07:23;;;;;;;3.90;3.60;;;;;22.60;100762.00;;;;2063029;28;20234;-54
2021/09/04 00:08:24;;;;;;;4.00;3.70;;;;;22.60;100765.00;;;;2063029;28;20305;-54
2021/09/04 00:09:24;;;;;;;4.00;3.70;;;;;22.60;100765.00;;;;2062691;28;20207;-54
2021/09/04 00:10:24;;;;;;;4.50;4.20;;;;;22.60;100759.00;;;;2062864;28;20222;-53
2021/09/04 00:11:25;;;;;;;4.70;4.30;;;;;22.60;100759.00;;;;2060981;28;20210;-54
2021/09/04 00:12:26;;;;;;;4.70;4.30;;;;;22.60;100759.00;;;;2062579;28;20206;-54
2021/09/04 00:13:26;;;;;;;4.50;4.10;;;;;22.60;100761.00;;;;2062929;28;20222;-54
2021/09/04 00:14:27;;;;;;;4.50;4.20;;;;;22.60;100754.00;;;;2065804;28;20240;-54
2021/09/04 00:15:27;;;;;;;4.17;3.87;;;;;22.60;100757.00;;;;2070831;28;20220;-54
2021/09/04 00:16:28;;;;;;;4.40;4.10;;;;;22.60;100757.00;;;;2070212;28;20457;-54
2021/09/04 00:17:28;;;;;;;4.50;4.20;;;;;22.60;100759.00;;;;2071088;28;20221;-53
2021/09/04 00:18:30;;;;;;;3.80;3.50;;;;;22.60;100747.00;;;;2070937;28;20222;-54
2021/09/04 00:19:31;;;;;;;4.47;4.18;;;;;22.60;100753.00;;;;2069868;28;20268;-54
2021/09/04 00:20:31;;;;;;;4.23;3.83;;;;;22.60;100752.00;;;;2070318;28;20678;-54
2021/09/04 00:21:32;;;;;;;4.20;3.90;;;;;22.60;100748.00;;;;2060763;28;20210;-53
2021/09/04 00:22:32;;;;;;;4.07;3.77;;;;;22.60;100751.00;;;;2070261;28;20218;-53
2021/09/04 00:23:32;;;;;;;4.17;3.87;;;;;22.60;100750.00;;;;2075173;28;20214;-53
2021/09/04 00:24:33;;;;;;;5.33;4.83;;;;;22.60;100748.00;;;;2069050;28;20229;-54
2021/09/04 00:25:33;;;;;;;4.30;3.90;;;;;22.60;100744.00;;;;2061568;28;20675;-54
2021/09/04 00:26:33;;;;;;;4.23;3.87;;;;;22.60;100746.00;;;;2062622;28;20643;-54
2021/09/04 00:27:34;;;;;;;4.53;4.13;;;;;22.60;100748.00;;;;2062999;28;20218;-53
2021/09/04 00:28:34;;;;;;;4.27;3.97;;;;;22.60;100740.00;;;;2062873;28;20211;-53
2021/09/04 00:29:35;;;;;;;4.33;4.03;;;;;22.60;100744.00;;;;2062634;28;20214;-54
2021/09/04 00:30:35;;;;;;;4.03;3.73;;;;;22.60;100747.00;;;;2062837;28;20827;-54
2021/09/04 00:31:35;;;;;;;4.00;3.70;;;;;22.60;100740.00;;;;2062786;28;20219;-53
2021/09/04 00:32:36;;;;;;;4.70;4.30;;;;;22.60;100746.00;;;;2062932;28;20676;-54
2021/09/04 00:33:36;;;;;;;4.50;4.20;;;;;22.60;100740.00;;;;2062812;28;20310;-54
2021/09/04 00:34:36;;;;;;;4.43;4.13;;;;;22.60;100742.00;;;;2062509;28;20689;-54
2021/09/04 00:35:37;;;;;;;4.23;3.70;;;;;22.60;100738.00;;;;2062322;28;20225;-54
2021/09/04 00:36:37;;;;;;;3.93;3.63;;;;;22.60;100746.00;;;;2062001;28;20221;-54
2021/09/04 00:37:37;;;;;;;4.27;3.97;;;;;22.60;100742.00;;;;2062890;28;20269;-54
2021/09/04 00:38:38;;;;;;;4.10;3.80;;;;;22.60;100738.00;;;;2062431;28;20223;-54
2021/09/04 00:39:38;;;;;;;4.50;4.10;;;;;22.60;100740.00;;;;2062601;28;20273;-54
2021/09/04 00:40:38;;;;;;;4.80;4.20;;;;;22.60;100736.00;;;;2060641;28;20230;-53
2021/09/04 00:41:39;;;;;;;4.77;4.37;;;;;22.60;100744.00;;;;2062927;28;20307;-54
2021/09/04 00:42:39;;;;;;;4.27;3.97;;;;;22.60;100745.00;;;;2062813;28;20439;-53
2021/09/04 00:43:39;;;;;;;4.10;3.80;;;;;22.60;100738.00;;;;2063071;28;20233;-54
2021/09/04 00:44:40;;;;;;;4.10;3.80;;;;;22.60;100744.00;;;;2054144;28;20219;-54
2021/09/04 00:45:40;;;;;;;4.07;3.77;;;;;22.60;100737.00;;;;2054172;28;20211;-54
2021/09/04 00:46:41;;;;;;;4.57;4.17;;;;;22.60;100740.00;;;;2062746;28;20731;-55
2021/09/04 00:47:54;;;;;;;4.93;4.50;;;;;22.60;100737.00;;;;2064856;28;20218;-54
2021/09/04 00:48:54;;;;;;;4.72;4.32;;;;;22.60;100739.00;;;;2069466;28;20309;-54
2021/09/04 00:49:54;;;;;;;4.80;4.40;;;;;22.60;100737.00;;;;2069911;28;20207;-54
2021/09/04 00:50:55;;;;;;;5.00;4.60;;;;;22.60;100732.00;;;;2070755;28;20221;-53
2021/09/04 00:51:55;;;;;;;4.60;4.30;;;;;22.60;100732.00;;;;2070899;28;20210;-55
2021/09/04 00:52:55;;;;;;;4.20;3.90;;;;;22.60;100736.00;;;;2070919;28;20294;-54
2021/09/04 00:53:56;;;;;;;4.10;3.80;;;;;22.60;100731.00;;;;2066878;28;20482;-54
2021/09/04 00:54:56;;;;;;;4.17;3.87;;;;;22.60;100726.00;;;;2065667;28;20642;-54
2021/09/04 00:55:57;;;;;;;4.43;4.03;;;;;22.60;100717.00;;;;2062169;28;20294;-54
2021/09/04 00:56:58;;;;;;;4.40;4.00;;;;;22.50;100730.00;;;;2054026;28;20383;-54
2021/09/04 00:57:58;;;;;;;4.73;4.43;;;;;22.50;100729.00;;;;2054312;28;20245;-54
2021/09/04 00:59:05;;;;;;;4.10;3.80;;;;;22.60;100724.00;;;;2061640;28;20262;-54
2021/09/04 01:00:05;;;;;;;4.03;3.72;;;;;22.60;100727.00;;;;2060658;28;20223;-54
2021/09/04 01:01:06;;;;;;;4.80;4.40;;;;;22.60;100728.00;;;;2062710;28;20577;-54
2021/09/04 01:02:06;;;;;;;4.10;3.80;;;;;22.50;100719.00;;;;2062763;28;20450;-54
2021/09/04 01:03:07;;;;;;;4.60;4.20;;;;;22.50;100719.00;;;;2062853;28;20234;-53
2021/09/04 01:04:07;;;;;;;5.23;4.83;;;;;22.60;100727.00;;;;2062666;28;20226;-54
2021/09/04 01:05:07;;;;;;;4.77;4.37;;;;;22.50;100716.00;;;;2062977;28;20683;-54
2021/09/04 01:06:08;;;;;;;4.40;4.10;;;;;22.60;100720.00;;;;2062824;28;20318;-54
2021/09/04 01:07:09;;;;;;;4.50;4.10;;;;;22.50;100728.00;;;;2062110;28;20218;-54
2021/09/04 01:08:09;;;;;;;5.07;4.67;;;;;22.60;100713.00;;;;2054132;28;20481;-54
2021/09/04 01:09:09;;;;;;;4.90;4.50;;;;;22.50;100718.00;;;;2061671;28;20218;-53
2021/09/04 01:10:10;;;;;;;4.60;4.20;;;;;22.50;100724.00;;;;2062738;28;20219;-54
2021/09/04 01:11:11;;;;;;;5.03;4.63;;;;;22.50;100726.00;;;;2062726;28;20265;-54
2021/09/04 01:12:13;;;;;;;5.20;4.80;;;;;22.50;100722.00;;;;2061161;28;20246;-54
2021/09/04 01:13:13;;;;;;;4.75;4.35;;;;;22.50;100719.00;;;;2054042;28;20587;-53
2021/09/04 01:14:14;;;;;;;4.63;4.33;;;;;22.50;100727.00;;;;2052155;28;20219;-53
2021/09/04 01:15:14;;;;;;;4.37;4.07;;;;;22.50;100718.00;;;;2062870;28;20215;-53
2021/09/04 01:16:14;;;;;;;4.23;3.93;;;;;22.50;100715.00;;;;2062526;28;20683;-53
2021/09/04 01:17:15;;;;;;;4.53;4.07;;;;;22.50;100724.00;;;;2062008;28;20219;-53
2021/09/04 01:18:15;;;;;;;4.57;4.17;;;;;22.50;100717.00;;;;2062051;28;20219;-54
2021/09/04 01:19:16;;;;;;;4.93;4.53;;;;;22.50;100715.00;;;;2062271;28;20215;-54
2021/09/04 01:20:16;;;;;;;4.37;3.97;;;;;22.50;100717.00;;;;2062513;28;20233;-54
2021/09/04 01:21:16;;;;;;;4.77;4.37;;;;;22.50;100714.00;;;;2062675;28;20226;-54
2021/09/04 01:22:17;;;;;;;4.63;4.23;;;;;22.50;100717.00;;;;2062693;28;20231;-53
2021/09/04 01:23:17;;;;;;;4.77;4.37;;;;;22.60;100715.00;;;;2062702;28;20230;-55
2021/09/04 01:24:17;;;;;;;4.43;4.10;;;;;22.50;100718.00;;;;2062836;28;20721;-54
2021/09/04 01:25:26;;;;;;;5.30;4.80;;;;;22.50;100723.00;;;;2062623;28;20227;-54
2021/09/04 01:26:26;;;;;;;4.63;4.22;;;;;22.60;100722.00;;;;2066307;28;20221;-54
2021/09/04 01:27:27;;;;;;;4.83;4.50;;;;;22.60;100710.00;;;;2071201;28;20575;-54
2021/09/04 01:28:27;;;;;;;4.40;4.10;;;;;22.60;100723.00;;;;2063475;28;20334;-55
2021/09/04 01:29:27;;;;;;;4.60;4.20;;;;;22.50;100721.00;;;;2063074;28;20301;-54
2021/09/04 01:30:28;;;;;;;4.33;4.03;;;;;22.60;100724.00;;;;2071950;28;21037;-54
2021/09/04 01:31:28;;;;;;;4.60;4.30;;;;;22.60;100722.00;;;;2071816;28;20219;-54
2021/09/04 01:32:29;;;;;;;4.67;4.27;;;;;22.60;100734.00;;;;2072164;28;20581;-54
2021/09/04 01:33:29;;;;;;;5.00;4.60;;;;;22.60;100718.00;;;;2072160;28;20226;-55
2021/09/04 01:34:30;;;;;;;4.13;3.83;;;;;22.60;100727.00;;;;2072276;28;20214;-55
2021/09/04 01:35:30;;;;;;;4.70;4.40;;;;;22.50;100722.00;;;;2072087;28;20301;-54
2021/09/04 01:36:31;;;;;;;4.40;4.03;;;;;22.50;100729.00;;;;2072079;28;20265;-55
2021/09/04 01:37:32;;;;;;;4.60;4.30;;;;;22.60;100728.00;;;;2071954;28;20226;-55
2021/09/04 01:38:33;;;;;;;4.68;4.38;;;;;22.60;100725.00;;;;2072083;28;20233;-54
2021/09/04 01:39:33;;;;;;;5.17;4.77;;;;;22.60;100730.00;;;;2071747;28;20317;-55
2021/09/04 01:40:34;;;;;;;4.77;4.37;;;;;22.60;100729.00;;;;2072034;28;20710;-55
2021/09/04 01:41:34;;;;;;;4.90;4.50;;;;;22.60;100730.00;;;;2072049;28;20218;-54
2021/09/04 01:42:34;;;;;;;4.67;4.27;;;;;22.50;100730.00;;;;2072028;28;20226;-54
2021/09/04 01:43:35;;;;;;;4.87;4.47;;;;;22.60;100726.00;;;;2071985;28;20210;-54
2021/09/04 01:44:37;;;;;;;5.00;4.60;;;;;22.50;100723.00;;;;2070217;28;20210;-54
2021/09/04 01:45:37;;;;;;;4.70;4.30;;;;;22.50;100731.00;;;;2063786;28;20765;-54
2021/09/04 01:46:37;;;;;;;5.03;4.63;;;;;22.50;100724.00;;;;2063032;28;20264;-54
2021/09/04 01:47:38;;;;;;;4.93;4.53;;;;;22.50;100719.00;;;;2063162;28;21001;-53
2021/09/04 01:48:38;;;;;;;4.80;4.40;;;;;22.50;100727.00;;;;2063891;28;20306;-53
2021/09/04 01:49:38;;;;;;;4.77;4.37;;;;;22.50;100723.00;;;;2063868;28;20215;-55
2021/09/04 01:50:39;;;;;;;4.50;4.20;;;;;22.50;100714.00;;;;2063958;28;20219;-54
2021/09/04 01:51:39;;;;;;;4.43;4.13;;;;;22.50;100720.00;;;;2064048;28;20309;-53
2021/09/04 01:52:41;;;;;;;4.27;3.90;;;;;22.50;100726.00;;;;2063618;28;20211;-55
2021/09/04 01:53:42;;;;;;;4.53;4.20;;;;;22.50;100718.00;;;;2063822;28;20245;-55
2021/09/04 01:54:42;;;;;;;4.70;4.30;;;;;22.50;100713.00;;;;2063835;28;20223;-55
2021/09/04 01:55:43;;;;;;;4.57;4.17;;;;;22.50;100714.00;;;;2063942;28;20223;-54
2021/09/04 01:56:43;;;;;;;5.07;4.57;;;;;22.50;100719.00;;;;2064021;28;20223;-54
2021/09/04 01:57:43;;;;;;;4.40;4.07;;;;;22.50;100725.00;;;;2063910;28;20226;-55
2021/09/04 01:58:45;;;;;;;4.80;4.40;;;;;22.50;100722.00;;;;2063726;28;20343;-55
2021/09/04 01:59:46;;;;;;;4.93;4.53;;;;;22.50;100709.00;;;;2061886;28;20219;-53
2021/09/04 02:00:46;;;;;;;5.00;4.60;;;;;22.50;100712.00;;;;2063896;28;20335;-54
2021/09/04 02:01:46;;;;;;;4.50;4.20;;;;;22.50;100709.00;;;;2064066;28;20210;-55
2021/09/04 02:02:47;;;;;;;4.90;4.50;;;;;22.50;100717.00;;;;2063843;28;20219;-55
2021/09/04 02:03:47;;;;;;;5.23;4.83;;;;;22.50;100710.00;;;;2063911;28;20215;-54
2021/09/04 02:04:48;;;;;;;4.70;4.30;;;;;22.50;100706.00;;;;2063986;28;20334;-54
2021/09/04 02:05:48;;;;;;;5.23;4.83;;;;;22.50;100709.00;;;;2063917;28;20225;-56
2021/09/04 02:06:48;;;;;;;4.50;4.10;;;;;22.50;100712.00;;;;2061831;28;20210;-55
2021/09/04 02:07:48;;;;;;;4.13;3.83;;;;;22.50;100714.00;;;;2063864;28;20218;-55
2021/09/04 02:08:49;;;;;;;4.90;4.50;;;;;22.50;100712.00;;;;2063325;28;20224;-53
2021/09/04 02:09:50;;;;;;;4.23;3.83;;;;;22.50;100713.00;;;;2063728;28;20337;-54
2021/09/04 02:10:50;;;;;;;4.97;4.57;;;;;22.50;100710.00;;;;2063723;28;20545;-55
2021/09/04 02:11:50;;;;;;;5.20;4.80;;;;;22.50;100706.00;;;;2063922;28;20710;-54
2021/09/04 02:12:51;;;;;;;4.60;4.20;;;;;22.50;100712.00;;;;2063895;28;20318;-55
2021/09/04 02:13:51;;;;;;;4.43;4.13;;;;;22.50;100712.00;;;;2069755;28;20214;-54
2021/09/04 02:14:52;;;;;;;5.13;4.73;;;;;22.50;100705.00;;;;2067757;28;20214;-55
2021/09/04 02:15:52;;;;;;;4.57;4.27;;;;;22.50;100713.00;;;;2067732;28;20676;-55
2021/09/04 02:16:52;;;;;;;5.10;4.70;;;;;22.50;100708.00;;;;2063218;28;20285;-55
2021/09/04 02:17:53;;;;;;;5.03;4.63;;;;;22.50;100709.00;;;;2063677;28;20226;-55
2021/09/04 02:18:53;;;;;;;4.80;4.40;;;;;22.50;100710.00;;;;2063330;28;20214;-54
2021/09/04 02:19:53;;;;;;;5.40;4.90;;;;;22.50;100711.00;;;;2063374;28;20626;-55
2021/09/04 02:20:54;;;;;;;4.63;4.23;;;;;22.50;100712.00;;;;2062792;28;20214;-55
2021/09/04 02:21:54;;;;;;;5.33;4.93;;;;;22.50;100709.00;;;;2063117;28;20577;-55
2021/09/04 02:22:54;;;;;;;5.00;4.60;;;;;22.50;100713.00;;;;2063287;28;20558;-54
2021/09/04 02:23:55;;;;;;;4.43;4.10;;;;;22.50;100713.00;;;;2062825;28;20211;-54
2021/09/04 02:24:55;;;;;;;5.30;4.87;;;;;22.50;100702.00;;;;2063198;28;20215;-55
2021/09/04 02:25:55;;;;;;;5.50;5.00;;;;;22.50;100705.00;;;;2063406;28;20211;-54
2021/09/04 02:26:57;;;;;;;4.57;4.27;;;;;22.50;100710.00;;;;2063134;28;20235;-55
2021/09/04 02:27:57;;;;;;;5.05;4.65;;;;;22.50;100708.00;;;;2062760;28;20269;-54
2021/09/04 02:28:57;;;;;;;4.40;4.00;;;;;22.50;100713.00;;;;2062422;28;20293;-54
2021/09/04 02:29:58;;;;;;;5.30;4.90;;;;;22.50;100712.00;;;;2062971;28;20226;-54
2021/09/04 02:30:58;;;;;;;4.90;4.50;;;;;22.50;100702.00;;;;2062833;28;20223;-53
2021/09/04 02:31:59;;;;;;;5.40;5.00;;;;;22.50;100709.00;;;;2062994;28;20216;-55
2021/09/04 02:32:59;;;;;;;4.67;4.27;;;;;22.50;100698.00;;;;2052285;28;20214;-58
2021/09/04 02:34:00;;;;;;;5.00;4.60;;;;;22.50;100714.00;;;;2062424;28;20246;-54
2021/09/04 02:35:00;;;;;;;5.37;4.97;;;;;22.50;100705.00;;;;2063010;28;20211;-54
2021/09/04 02:36:00;;;;;;;5.00;4.60;;;;;22.50;100703.00;;;;2063086;28;20301;-55
2021/09/04 02:37:01;;;;;;;4.87;4.47;;;;;22.50;100704.00;;;;2063036;28;20694;-56
2021/09/04 02:38:02;;;;;;;5.27;4.87;;;;;22.50;100708.00;;;;2062740;28;20444;-56
2021/09/04 02:39:02;;;;;;;5.15;4.75;;;;;22.50;100710.00;;;;2061798;28;20211;-54
2021/09/04 02:40:03;;;;;;;5.37;4.90;;;;;22.50;100710.00;;;;2062510;28;20341;-54
2021/09/04 02:41:03;;;;;;;4.43;4.10;;;;;22.50;100711.00;;;;2062837;28;20740;-55
2021/09/04 02:42:04;;;;;;;5.07;4.67;;;;;22.50;100702.00;;;;2062964;28;20238;-54
2021/09/04 02:43:04;;;;;;;4.70;4.30;;;;;22.50;100705.00;;;;2063059;28;20218;-53
2021/09/04 02:44:04;;;;;;;4.67;4.33;;;;;22.50;100708.00;;;;2063245;28;20285;-54
2021/09/04 02:45:05;;;;;;;4.53;4.23;;;;;22.50;100705.00;;;;2063264;28;20222;-55
2021/09/04 02:46:06;;;;;;;4.83;4.43;;;;;22.50;100704.00;;;;2063015;28;20253;-55
2021/09/04 02:47:07;;;;;;;4.90;4.50;;;;;22.50;100700.00;;;;2063219;28;20729;-55
2021/09/04 02:48:07;;;;;;;5.33;4.93;;;;;22.50;100702.00;;;;2063356;28;20261;-53
2021/09/04 02:49:07;;;;;;;4.90;4.50;;;;;22.50;100695.00;;;;2063158;28;20215;-54
2021/09/04 02:50:08;;;;;;;5.47;5.00;;;;;22.50;100700.00;;;;2063448;28;20699;-54
2021/09/04 02:51:09;;;;;;;4.90;4.50;;;;;22.50;100699.00;;;;2063314;28;20225;-54
2021/09/04 02:52:09;;;;;;;4.70;4.30;;;;;22.50;100692.00;;;;2063353;28;20207;-54
2021/09/04 02:53:09;;;;;;;4.87;4.47;;;;;22.50;100693.00;;;;2064216;28;20579;-54
2021/09/04 02:54:10;;;;;;;5.10;4.70;;;;;22.50;100695.00;;;;2071635;28;20309;-55
2021/09/04 02:55:10;;;;;;;4.67;4.30;;;;;22.50;100693.00;;;;2071580;28;20210;-55
2021/09/04 02:56:11;;;;;;;5.10;4.70;;;;;22.50;100697.00;;;;2071638;28;20210;-55
2021/09/04 02:57:11;;;;;;;4.87;4.47;;;;;22.50;100690.00;;;;2066909;28;20209;-54
2021/09/04 02:58:11;;;;;;;5.23;4.73;;;;;22.50;100696.00;;;;2071159;28;20734;-55
2021/09/04 02:59:12;;;;;;;4.93;4.57;;;;;22.50;100694.00;;;;2065805;28;20729;-54
2021/09/04 03:00:13;;;;;;;4.77;4.37;;;;;22.50;100702.00;;;;2063535;28;20203;-55
2021/09/04 03:01:13;;;;;;;4.68;4.38;;;;;22.50;100703.00;;;;2063511;28;20214;-55
2021/09/04 03:02:16;;;;;;;5.30;4.90;;;;;22.50;100702.00;;;;2063201;28;20289;-54
2021/09/04 03:03:17;;;;;;;4.18;3.85;;;;;22.50;100696.00;;;;2063467;28;20222;-54
2021/09/04 03:04:17;;;;;;;5.40;4.93;;;;;22.50;100704.00;;;;2063406;28;20307;-55
2021/09/04 03:05:18;;;;;;;4.63;4.23;;;;;22.50;100704.00;;;;2063551;28;20226;-54
2021/09/04 03:06:18;;;;;;;5.18;4.68;;;;;22.50;100702.00;;;;2063481;28;20214;-54
2021/09/04 03:07:19;;;;;;;4.90;4.50;;;;;22.50;100715.00;;;;2063238;28;20262;-54
2021/09/04 03:08:19;;;;;;;5.70;5.30;;;;;22.50;100703.00;;;;2063358;28;20738;-54
2021/09/04 03:09:19;;;;;;;4.87;4.47;;;;;22.50;100706.00;;;;2063017;28;20626;-54
2021/09/04 03:10:20;;;;;;;4.90;4.50;;;;;22.50;100705.00;;;;2063358;28;20293;-55
2021/09/04 03:11:22;;;;;;;5.10;4.70;;;;;22.50;100713.00;;;;2063450;28;20239;-55
2021/09/04 03:12:22;;;;;;;5.00;4.60;;;;;22.50;100715.00;;;;2063031;28;20567;-53
2021/09/04 03:13:22;;;;;;;5.20;4.80;;;;;22.50;100708.00;;;;2063395;28;20219;-55
2021/09/04 03:14:23;;;;;;;4.87;4.47;;;;;22.50;100715.00;;;;2063302;28;20687;-54
2021/09/04 03:15:23;;;;;;;4.93;4.53;;;;;22.50;100709.00;;;;2063223;28;20690;-54
2021/09/04 03:16:23;;;;;;;5.53;4.80;;;;;22.50;100712.00;;;;2059396;28;20218;-54
2021/09/04 03:17:24;;;;;;;5.13;4.73;;;;;22.50;100710.00;;;;2075099;28;20221;-55
2021/09/04 03:18:24;;;;;;;5.30;4.90;;;;;22.50;100718.00;;;;2072670;28;20214;-56
2021/09/04 03:19:24;;;;;;;5.40;4.93;;;;;22.50;100704.00;;;;2069715;28;20210;-53
2021/09/04 03:20:25;;;;;;;4.73;4.40;;;;;22.50;100712.00;;;;2063378;28;20306;-54
2021/09/04 03:21:25;;;;;;;5.10;4.70;;;;;22.50;100708.00;;;;2063313;28;20222;-54
2021/09/04 03:22:25;;;;;;;5.67;5.17;;;;;22.50;100713.00;;;;2063186;28;20308;-54
2021/09/04 03:23:26;;;;;;;5.17;4.77;;;;;22.50;100705.00;;;;2063089;28;20227;-54
2021/09/04 03:24:26;;;;;;;5.43;4.93;;;;;22.50;100707.00;;;;2063180;28;20234;-54
2021/09/04 03:25:27;;;;;;;5.60;5.10;;;;;22.50;100712.00;;;;2063294;28;20333;-54
2021/09/04 03:26:27;;;;;;;5.50;5.00;;;;;22.50;100713.00;;;;2063436;28;20230;-55
2021/09/04 03:27:27;;;;;;;5.07;4.67;;;;;22.50;100717.00;;;;2063131;28;20231;-53
2021/09/04 03:28:28;;;;;;;5.00;4.60;;;;;22.50;100714.00;;;;2062974;28;20250;-54
2021/09/04 03:29:28;;;;;;;5.90;5.40;;;;;22.50;100713.00;;;;2062772;28;20227;-54
2021/09/04 03:30:28;;;;;;;5.90;5.40;;;;;22.50;100712.00;;;;2063261;28;20234;-54
2021/09/04 03:31:29;;;;;;;5.30;4.90;;;;;22.50;100713.00;;;;2063163;28;20785;-54
2021/09/04 03:32:29;;;;;;;5.03;4.63;;;;;22.50;100711.00;;;;2063248;28;20219;-54
2021/09/04 03:33:29;;;;;;;5.13;4.73;;;;;22.50;100716.00;;;;2062682;28;20215;-55
2021/09/04 03:34:30;;;;;;;4.90;4.50;;;;;22.50;100709.00;;;;2062501;28;20223;-54
2021/09/04 03:35:30;;;;;;;5.60;5.10;;;;;22.50;100716.00;;;;2063172;28;20695;-54
2021/09/04 03:36:30;;;;;;;5.57;5.10;;;;;22.50;100710.00;;;;2063065;28;20635;-54
2021/09/04 03:37:31;;;;;;;5.00;4.60;;;;;22.50;100708.00;;;;2063019;28;20218;-55
2021/09/04 03:38:31;;;;;;;5.63;5.23;;;;;22.50;100720.00;;;;2063034;28;20221;-55
2021/09/04 03:39:31;;;;;;;4.90;4.50;;;;;22.50;100714.00;;;;2069013;28;20221;-55
2021/09/04 03:40:32;;;;;;;5.57;5.07;;;;;22.50;100711.00;;;;2071289;28;20352;-54
2021/09/04 03:41:32;;;;;;;5.20;4.80;;;;;22.50;100702.00;;;;2071138;28;20252;-54
2021/09/04 03:42:33;;;;;;;4.80;4.40;;;;;22.50;100705.00;;;;2071242;28;20230;-54
2021/09/04 03:43:35;;;;;;;5.80;5.30;;;;;22.50;100711.00;;;;2071252;28;20225;-55
2021/09/04 03:44:35;;;;;;;5.90;5.40;;;;;22.50;100707.00;;;;2066458;28;20242;-54
2021/09/04 03:45:36;;;;;;;4.50;4.20;;;;;22.50;100715.00;;;;2061909;28;20215;-54
2021/09/04 03:46:36;;;;;;;5.17;4.77;;;;;22.50;100702.00;;;;2062980;28;20210;-55
2021/09/04 03:47:36;;;;;;;5.27;4.80;;;;;22.50;100710.00;;;;2063039;28;20218;-54
2021/09/04 03:48:37;;;;;;;5.30;4.90;;;;;22.50;100706.00;;;;2062335;28;20217;-54
2021/09/04 03:49:37;;;;;;;5.20;4.80;;;;;22.50;100708.00;;;;2062846;28;20246;-53
2021/09/04 03:50:38;;;;;;;5.37;4.97;;;;;22.50;100701.00;;;;2062904;28;20246;-54
2021/09/04 03:51:38;;;;;;;5.53;5.03;;;;;22.50;100707.00;;;;2062912;28;20215;-54
2021/09/04 03:52:38;;;;;;;5.37;4.97;;;;;22.50;100705.00;;;;2063175;28;20746;-54
2021/09/04 03:53:39;;;;;;;5.77;5.27;;;;;22.50;100706.00;;;;2062559;28;20218;-55
2021/09/04 03:54:39;;;;;;;5.53;5.03;;;;;22.50;100703.00;;;;2062920;28;20215;-54
2021/09/04 03:55:39;;;;;;;5.67;5.20;;;;;22.50;100707.00;;;;2062850;28;20222;-53
2021/09/04 03:56:40;;;;;;;5.60;5.10;;;;;22.50;100706.00;;;;2063058;28;20245;-54
2021/09/04 03:57:40;;;;;;;5.07;4.67;;;;;22.50;100710.00;;;;2063037;28;20221;-54
2021/09/04 03:58:41;;;;;;;5.20;4.80;;;;;22.50;100707.00;;;;2062445;28;20706;-53
2021/09/04 03:59:41;;;;;;;5.67;5.10;;;;;22.50;100703.00;;;;2062857;28;20714;-55
2021/09/04 04:00:41;;;;;;;5.10;4.70;;;;;22.50;100709.00;;;;2062783;28;20238;-55
2021/09/04 04:01:42;;;;;;;5.37;4.93;;;;;22.50;100707.00;;;;2062573;28;20230;-55
2021/09/04 04:02:42;;;;;;;5.10;4.70;;;;;22.50;100710.00;;;;2062587;28;20238;-57
2021/09/04 04:03:42;;;;;;;5.50;5.00;;;;;22.50;100707.00;;;;2058724;28;20294;-59
2021/09/04 04:04:43;;;;;;;6.00;5.50;;;;;22.50;100712.00;;;;2062958;28;20763;-54
2021/09/04 04:05:43;;;;;;;5.70;5.20;;;;;22.50;100715.00;;;;2062956;28;20215;-54
2021/09/04 04:06:43;;;;;;;6.00;5.50;;;;;22.50;100722.00;;;;2062946;28;20211;-55
2021/09/04 04:07:44;;;;;;;6.33;5.80;;;;;22.50;100719.00;;;;2061806;28;20234;-55
2021/09/04 04:08:44;;;;;;;5.47;4.97;;;;;22.50;100721.00;;;;2062302;28;20226;-56
2021/09/04 04:09:44;;;;;;;5.37;4.87;;;;;22.50;100721.00;;;;2061556;28;20302;-55
2021/09/04 04:10:45;;;;;;;5.80;5.30;;;;;22.50;100722.00;;;;2062967;28;20202;-53
2021/09/04 04:11:45;;;;;;;6.40;5.90;;;;;22.50;100723.00;;;;2062840;28;20714;-53
2021/09/04 04:12:45;;;;;;;5.27;4.87;;;;;22.50;100727.00;;;;2063007;28;20587;-55
2021/09/04 04:13:46;;;;;;;5.50;5.00;;;;;22.50;100719.00;;;;2062987;28;20668;-55
2021/09/04 04:14:46;;;;;;;5.70;5.20;;;;;22.50;100718.00;;;;2062903;28;20361;-55
2021/09/04 04:15:46;;;;;;;5.03;4.63;;;;;22.50;100714.00;;;;2062990;28;20264;-54
2021/09/04 04:16:47;;;;;;;6.03;5.47;;;;;22.50;100719.00;;;;2062793;28;20211;-54
2021/09/04 04:17:48;;;;;;;5.70;5.20;;;;;22.50;100712.00;;;;2061244;28;20579;-53
2021/09/04 04:18:48;;;;;;;6.03;5.53;;;;;22.40;100718.00;;;;2062496;28;20456;-54
2021/09/04 04:19:48;;;;;;;5.77;5.37;;;;;22.50;100715.00;;;;2062495;28;20241;-54
2021/09/04 04:20:48;;;;;;;5.50;5.10;;;;;22.50;100716.00;;;;2062933;28;20222;-55
2021/09/04 04:21:49;;;;;;;6.30;5.80;;;;;22.40;100719.00;;;;2062960;28;20210;-54
2021/09/04 04:22:49;;;;;;;5.73;5.23;;;;;22.50;100721.00;;;;2062858;28;20219;-53
2021/09/04 04:23:49;;;;;;;5.70;5.20;;;;;22.50;100725.00;;;;2065566;28;20210;-55
2021/09/04 04:24:50;;;;;;;5.93;5.43;;;;;22.50;100721.00;;;;2070518;28;20682;-54
2021/09/04 04:25:50;;;;;;;6.07;5.57;;;;;22.50;100720.00;;;;2070983;28;20279;-54
2021/09/04 04:26:51;;;;;;;5.90;5.40;;;;;22.50;100723.00;;;;2067347;28;20218;-55
2021/09/04 04:27:51;;;;;;;6.10;5.60;;;;;22.50;100720.00;;;;2071048;28;20687;-55
2021/09/04 04:28:51;;;;;;;6.20;5.70;;;;;22.50;100727.00;;;;2065862;28;20587;-55
2021/09/04 04:29:52;;;;;;;6.20;5.70;;;;;22.50;100723.00;;;;2064291;28;20211;-54
2021/09/04 04:30:52;;;;;;;6.23;5.73;;;;;22.50;100730.00;;;;2070905;28;20298;-54
2021/09/04 04:31:52;;;;;;;6.50;5.90;;;;;22.50;100733.00;;;;2070859;28;20275;-54
2021/09/04 04:32:53;;;;;;;5.63;5.13;;;;;22.50;100724.00;;;;2070870;28;20256;-55
2021/09/04 04:33:53;;;;;;;5.90;5.40;;;;;22.50;100722.00;;;;2070974;28;20353;-55
2021/09/04 04:34:53;;;;;;;6.47;5.90;;;;;22.50;100727.00;;;;2070983;28;20237;-55
2021/09/04 04:35:54;;;;;;;6.60;6.00;;;;;22.50;100724.00;;;;2070193;28;20206;-54
2021/09/04 04:36:54;;;;;;;6.20;5.70;;;;;22.50;100724.00;;;;2070426;28;20214;-54
2021/09/04 04:37:54;;;;;;;6.03;5.53;;;;;22.50;100728.00;;;;2070736;28;20753;-55
2021/09/04 04:38:55;;;;;;;6.97;5.47;;;;;22.50;100726.00;;;;2069647;28;20574;-55
2021/09/04 04:39:55;;;;;;;6.80;6.20;;;;;22.50;100724.00;;;;2070194;28;20407;-55
2021/09/04 04:40:55;;;;;;;6.57;6.07;;;;;22.50;100729.00;;;;2064258;28;20221;-55
2021/09/04 04:41:56;;;;;;;6.27;5.77;;;;;22.50;100721.00;;;;2062470;28;20225;-54
2021/09/04 04:42:56;;;;;;;6.17;5.67;;;;;22.50;100719.00;;;;2062371;28;20214;-53
2021/09/04 04:43:56;;;;;;;6.27;5.77;;;;;22.50;100727.00;;;;2065752;28;20308;-55
2021/09/04 04:44:57;;;;;;;6.40;5.90;;;;;22.50;100730.00;;;;2062075;28;20293;-54
2021/09/04 04:45:57;;;;;;;7.03;6.43;;;;;22.50;100726.00;;;;2061566;28;20249;-55
2021/09/04 04:46:57;;;;;;;7.07;6.37;;;;;22.50;100735.00;;;;2061396;28;20482;-55
2021/09/04 04:47:58;;;;;;;6.57;5.83;;;;;22.50;100735.00;;;;2061756;28;20222;-55
2021/09/04 04:48:58;;;;;;;6.47;5.87;;;;;22.50;100727.00;;;;2061632;28;20219;-53
2021/09/04 04:49:58;;;;;;;6.90;6.30;;;;;22.50;100742.00;;;;2062310;28;20305;-54
2021/09/04 04:50:59;;;;;;;6.60;6.10;;;;;22.50;100742.00;;;;2062079;28;20218;-54
2021/09/04 04:51:59;;;;;;;7.00;6.40;;;;;22.40;100735.00;;;;2062054;28;20223;-56
2021/09/04 04:53:01;;;;;;;7.00;6.40;;;;;22.50;100741.00;;;;2062543;28;20221;-54
2021/09/04 04:54:03;;;;;;;6.80;6.20;;;;;22.50;100743.00;;;;2061328;28;20221;-55
2021/09/04 04:55:04;;;;;;;7.25;6.63;;;;;22.40;100738.00;;;;2061770;28;20289;-55
2021/09/04 04:56:04;;;;;;;6.53;6.03;;;;;22.40;100740.00;;;;2066429;28;20218;-56
2021/09/04 04:57:06;;;;;;;6.70;6.10;;;;;22.50;100740.00;;;;2065026;28;20465;-53
2021/09/04 04:58:06;;;;;;;7.40;6.70;;;;;22.40;100738.00;;;;2061539;28;20282;-55
2021/09/04 04:59:06;;;;;;;6.80;6.30;;;;;22.40;100747.00;;;;2061039;28;20219;-55